createdAt,value
2023-01-29T00:02:16.059Z,20.24
2023-01-29T00:04:42.796Z,20.37
2023-01-29T00:07:09.366Z,20.20
2023-01-29T00:09:36.080Z,20.09
2023-01-29T00:12:02.718Z,20.30
2023-01-29T00:14:29.482Z,20.31
2023-01-29T00:16:56.108Z,20.16
2023-01-29T00:19:23.212Z,20.31
2023-01-29T00:21:49.732Z,20.36
2023-01-29T00:24:16.689Z,20.36
2023-01-29T00:26:43.399Z,20.32
2023-01-29T00:29:10.437Z,20.19
2023-01-29T00:31:37.189Z,20.32
2023-01-29T00:34:03.896Z,20.20
2023-01-29T00:36:30.547Z,19.91
2023-01-29T00:38:59.278Z,20.30
2023-01-29T00:41:49.491Z,20.28
2023-01-29T00:44:34.737Z,20.35
2023-01-29T00:47:01.694Z,20.21
2023-01-29T00:49:30.066Z,20.34
2023-01-29T00:52:17.044Z,20.25
2023-01-29T00:54:43.669Z,20.34
2023-01-29T00:57:10.201Z,20.34
2023-01-29T00:59:37.532Z,20.33
2023-01-29T01:02:23.024Z,20.14
2023-01-29T01:04:49.913Z,20.24
2023-01-29T01:07:17.127Z,20.33
2023-01-29T01:10:02.293Z,20.09
2023-01-29T01:12:29.440Z,20.32
2023-01-29T01:14:55.951Z,20.23
2023-01-29T01:17:22.751Z,20.31
2023-01-29T01:19:49.444Z,19.98
2023-01-29T01:22:16.347Z,20.32
2023-01-29T01:24:44.132Z,20.21
2023-01-29T01:27:10.720Z,20.23
2023-01-29T01:29:37.363Z,20.30
2023-01-29T01:32:04.348Z,20.17
2023-01-29T01:34:30.929Z,20.29
2023-01-29T01:36:57.641Z,20.30
2023-01-29T01:39:25.289Z,20.29
2023-01-29T01:41:53.663Z,20.28
2023-01-29T01:44:53.677Z,20.27
2023-01-29T01:47:37.662Z,19.94
2023-01-29T01:50:14.243Z,19.83
2023-01-29T01:52:47.349Z,20.23
2023-01-29T01:55:19.052Z,20.26
2023-01-29T01:57:51.110Z,20.05
2023-01-29T02:00:19.512Z,20.11
2023-01-29T02:03:06.078Z,20.18
2023-01-29T02:05:53.280Z,20.22
2023-01-29T02:08:48.656Z,20.20
2023-01-29T02:11:15.995Z,20.16
2023-01-29T02:13:43.374Z,20.22
2023-01-29T02:16:09.953Z,20.23
2023-01-29T02:18:38.129Z,20.22
2023-01-29T02:21:29.290Z,20.19
2023-01-29T02:24:14.953Z,20.22
2023-01-29T02:27:19.569Z,20.21
2023-01-29T02:29:52.221Z,20.21
2023-01-29T02:32:54.346Z,20.21
2023-01-29T02:35:31.965Z,20.20
2023-01-29T02:38:08.025Z,20.20
2023-01-29T02:41:02.700Z,20.07
2023-01-29T02:43:55.395Z,20.10
2023-01-29T02:46:40.465Z,20.20
2023-01-29T02:49:16.516Z,20.20
2023-01-29T02:51:54.668Z,20.20
2023-01-29T02:54:46.916Z,20.09
2023-01-29T02:57:22.664Z,20.20
2023-01-29T02:59:56.036Z,20.16
2023-01-29T03:02:33.044Z,20.04
2023-01-29T03:05:03.677Z,20.03
2023-01-29T03:07:46.347Z,20.13
2023-01-29T03:10:43.813Z,20.17
2023-01-29T03:13:18.511Z,20.18
2023-01-29T03:15:54.910Z,20.17
2023-01-29T03:18:45.855Z,19.93
2023-01-29T03:21:37.273Z,20.17
2023-01-29T03:24:25.133Z,20.07
2023-01-29T03:27:11.633Z,20.15
2023-01-29T03:30:03.304Z,20.12
2023-01-29T03:32:59.204Z,20.09
2023-01-29T03:35:36.522Z,20.13
2023-01-29T03:38:07.431Z,20.09
2023-01-29T03:40:51.028Z,20.13
2023-01-29T03:43:39.005Z,20.12
2023-01-29T03:46:22.420Z,20.12
2023-01-29T03:49:14.478Z,20.13
2023-01-29T03:51:53.180Z,20.12
2023-01-29T03:55:01.213Z,20.11
2023-01-29T03:57:36.490Z,20.03
2023-01-29T04:00:21.249Z,20.11
2023-01-29T04:03:19.583Z,20.10
2023-01-29T04:06:24.344Z,20.09
2023-01-29T04:09:07.388Z,20.09
2023-01-29T04:11:42.835Z,20.08
2023-01-29T04:14:10.711Z,20.08
2023-01-29T04:16:41.921Z,20.08
2023-01-29T04:19:21.623Z,20.06
2023-01-29T04:21:53.051Z,20.08
2023-01-29T04:24:19.697Z,20.07
2023-01-29T04:27:01.304Z,20.08
2023-01-29T04:29:43.359Z,20.07
2023-01-29T04:33:03.141Z,20.07
2023-01-29T04:35:40.787Z,20.06
2023-01-29T04:38:35.297Z,20.07
2023-01-29T04:41:21.810Z,20.06
2023-01-29T04:44:06.742Z,20.05
2023-01-29T04:46:49.507Z,19.99
2023-01-29T04:49:21.884Z,20.05
2023-01-29T04:52:03.756Z,20.01
2023-01-29T04:54:55.260Z,20.04
2023-01-29T04:57:35.960Z,20.03
2023-01-29T05:00:08.549Z,20.00
2023-01-29T05:02:39.266Z,20.04
2023-01-29T05:05:08.374Z,19.99
2023-01-29T05:07:38.509Z,20.04
2023-01-29T05:10:09.495Z,19.98
2023-01-29T05:12:38.059Z,20.04
2023-01-29T05:15:11.600Z,20.05
2023-01-29T05:17:38.358Z,20.04
2023-01-29T05:20:06.032Z,20.04
2023-01-29T05:22:32.936Z,20.05
2023-01-29T05:24:59.579Z,20.00
2023-01-29T05:27:53.970Z,20.06
2023-01-29T05:30:20.588Z,20.06
2023-01-29T05:32:47.117Z,20.05
2023-01-29T05:35:14.325Z,20.04
2023-01-29T05:37:40.976Z,20.03
2023-01-29T05:40:08.805Z,20.05
2023-01-29T05:42:35.516Z,19.98
2023-01-29T05:45:02.211Z,20.06
2023-01-29T05:47:28.775Z,19.93
2023-01-29T05:49:55.455Z,20.01
2023-01-29T05:52:22.022Z,20.05
2023-01-29T05:54:49.022Z,19.99
2023-01-29T05:57:15.604Z,20.04
2023-01-29T05:59:42.196Z,20.05
2023-01-29T06:02:08.748Z,19.99
2023-01-29T06:04:35.576Z,19.94
2023-01-29T06:07:03.419Z,20.00
2023-01-29T06:09:29.981Z,19.78
2023-01-29T06:11:57.316Z,19.92
2023-01-29T06:14:23.939Z,19.87
2023-01-29T06:16:50.449Z,20.02
2023-01-29T06:19:18.251Z,20.00
2023-01-29T06:21:44.753Z,20.00
2023-01-29T06:24:11.377Z,19.99
2023-01-29T06:26:37.996Z,19.98
2023-01-29T06:29:04.620Z,19.98
2023-01-29T06:31:39.844Z,19.96
2023-01-29T06:34:07.978Z,19.96
2023-01-29T06:36:34.798Z,19.96
2023-01-29T06:39:01.379Z,19.92
2023-01-29T06:41:28.613Z,19.88
2023-01-29T06:43:55.417Z,19.92
2023-01-29T06:46:21.958Z,19.92
2023-01-29T06:48:48.612Z,19.85
2023-01-29T06:51:15.137Z,19.89
2023-01-29T06:53:43.376Z,19.89
2023-01-29T06:56:11.241Z,19.88
2023-01-29T06:58:38.271Z,19.86
2023-01-29T07:01:05.163Z,19.85
2023-01-29T07:03:32.047Z,19.85
2023-01-29T07:05:58.745Z,19.72
2023-01-29T07:08:25.366Z,19.83
2023-01-29T07:10:52.001Z,19.81
2023-01-29T07:13:18.612Z,19.80
2023-01-29T07:15:45.149Z,19.76
2023-01-29T07:18:14.650Z,19.80
2023-01-29T07:20:42.522Z,19.63
2023-01-29T07:23:14.321Z,19.78
2023-01-29T07:25:41.627Z,19.56
2023-01-29T07:28:08.312Z,19.77
2023-01-29T07:30:35.735Z,19.72
2023-01-29T07:33:08.074Z,19.75
2023-01-29T07:35:42.468Z,19.76
2023-01-29T07:38:10.857Z,19.71
2023-01-29T07:40:37.804Z,19.75
2023-01-29T07:43:07.018Z,19.71
2023-01-29T07:45:36.280Z,19.74
2023-01-29T07:48:07.684Z,19.65
2023-01-29T07:50:35.368Z,19.65
2023-01-29T07:53:02.524Z,19.74
2023-01-29T07:55:29.161Z,19.74
2023-01-29T07:57:57.233Z,19.70
2023-01-29T08:00:24.451Z,19.61
2023-01-29T08:02:51.111Z,19.75
2023-01-29T08:05:17.916Z,19.75
2023-01-29T08:07:49.248Z,19.60
2023-01-29T08:10:20.797Z,19.53
2023-01-29T08:15:11.301Z,19.74
2023-01-29T08:17:52.556Z,19.75
2023-01-29T08:20:24.193Z,19.74
2023-01-29T08:22:59.151Z,19.59
2023-01-29T08:25:26.183Z,19.66
2023-01-29T08:27:53.087Z,19.70
2023-01-29T08:30:19.855Z,19.74
2023-01-29T08:32:46.450Z,19.76
2023-01-29T08:35:14.058Z,19.67
2023-01-29T08:37:40.596Z,19.76
2023-01-29T08:40:13.333Z,19.74
2023-01-29T08:42:41.373Z,19.73
2023-01-29T08:45:08.882Z,19.79
2023-01-29T08:47:35.440Z,19.80
2023-01-29T08:50:02.301Z,19.82
2023-01-29T08:52:28.952Z,19.81
2023-01-29T08:54:55.555Z,19.79
2023-01-29T08:57:22.194Z,19.82
2023-01-29T08:59:48.677Z,19.82
2023-01-29T09:02:15.309Z,19.74
2023-01-29T09:04:41.958Z,19.76
2023-01-29T09:07:08.510Z,19.76
2023-01-29T09:09:35.205Z,19.80
2023-01-29T09:12:01.862Z,19.80
2023-01-29T09:14:28.376Z,19.78
2023-01-29T09:16:55.043Z,19.80
2023-01-29T09:19:21.564Z,19.71
2023-01-29T09:21:49.512Z,19.79
2023-01-29T09:24:16.465Z,19.80
2023-01-29T09:26:43.067Z,19.76
2023-01-29T09:29:10.922Z,19.77
2023-01-29T09:31:37.798Z,19.79
2023-01-29T09:34:04.461Z,19.80
2023-01-29T09:36:31.131Z,19.76
2023-01-29T09:38:57.808Z,19.66
2023-01-29T09:41:38.588Z,19.47
2023-01-29T09:44:32.633Z,19.81
2023-01-29T09:47:04.978Z,19.81
2023-01-29T09:49:35.975Z,19.82
2023-01-29T09:52:07.269Z,19.71
2023-01-29T09:54:47.041Z,19.82
2023-01-29T09:57:22.716Z,19.82
2023-01-29T09:59:49.346Z,19.75
2023-01-29T10:02:34.489Z,19.82
2023-01-29T10:05:34.534Z,19.83
2023-01-29T10:08:38.976Z,19.83
2023-01-29T10:11:26.432Z,19.81
2023-01-29T10:14:02.564Z,19.19
2023-01-29T10:16:59.369Z,18.40
2023-01-29T10:20:01.198Z,18.29
2023-01-29T10:22:33.556Z,18.36
2023-01-29T10:25:09.929Z,18.47
2023-01-29T10:27:40.387Z,18.60
2023-01-29T10:30:20.407Z,18.71
2023-01-29T10:32:49.293Z,18.83
2023-01-29T10:35:31.647Z,18.94
2023-01-29T10:38:02.207Z,19.03
2023-01-29T10:40:38.169Z,19.12
2023-01-29T10:43:13.068Z,19.16
2023-01-29T10:46:17.881Z,19.26
2023-01-29T10:48:58.272Z,19.32
2023-01-29T10:51:40.133Z,19.38
2023-01-29T10:54:18.607Z,19.41
2023-01-29T10:57:09.781Z,19.44
2023-01-29T10:59:56.622Z,19.42
2023-01-29T11:02:23.194Z,19.48
2023-01-29T11:04:49.779Z,19.50
2023-01-29T11:07:19.534Z,19.52
2023-01-29T11:10:11.442Z,19.53
2023-01-29T11:12:39.277Z,19.32
2023-01-29T11:15:11.974Z,19.55
2023-01-29T11:17:38.784Z,19.56
2023-01-29T11:20:25.266Z,19.51
2023-01-29T11:22:58.129Z,19.50
2023-01-29T11:25:25.295Z,19.47
2023-01-29T11:27:57.022Z,19.58
2023-01-29T11:30:29.764Z,19.51
2023-01-29T11:33:05.432Z,19.61
2023-01-29T11:35:33.372Z,19.62
2023-01-29T11:38:08.770Z,19.62
2023-01-29T11:40:39.765Z,19.60
2023-01-29T11:43:30.805Z,19.62
2023-01-29T11:45:59.832Z,19.61
2023-01-29T11:48:40.820Z,19.60
2023-01-29T11:51:10.347Z,19.64
2023-01-29T11:53:44.286Z,19.62
2023-01-29T11:56:20.053Z,19.67
2023-01-29T11:58:48.465Z,19.45
2023-01-29T12:01:18.426Z,19.67
2023-01-29T12:03:52.110Z,19.54
2023-01-29T12:06:23.462Z,19.62
2023-01-29T12:08:57.290Z,19.68
2023-01-29T12:11:28.009Z,19.73
2023-01-29T12:13:57.124Z,19.67
2023-01-29T12:16:31.177Z,19.73
2023-01-29T12:19:18.587Z,19.54
2023-01-29T12:21:51.025Z,19.73
2023-01-29T12:24:23.416Z,19.72
2023-01-29T12:26:53.262Z,19.73
2023-01-29T12:30:00.815Z,19.73
2023-01-29T12:33:09.143Z,19.72
2023-01-29T12:35:43.537Z,19.63
2023-01-29T12:38:21.971Z,19.71
2023-01-29T12:40:55.287Z,19.43
2023-01-29T12:43:27.512Z,19.64
2023-01-29T12:45:55.381Z,19.70
2023-01-29T12:48:28.027Z,19.70
2023-01-29T12:50:59.377Z,19.70
2023-01-29T12:53:35.114Z,19.69
2023-01-29T12:56:18.485Z,19.66
2023-01-29T12:58:49.631Z,19.71
2023-01-29T13:01:28.972Z,19.71
2023-01-29T13:04:06.320Z,19.65
2023-01-29T13:06:42.528Z,19.72
2023-01-29T13:09:17.107Z,19.71
2023-01-29T13:11:53.330Z,19.72
2023-01-29T13:14:24.164Z,19.63
2023-01-29T13:16:55.482Z,19.71
2023-01-29T13:19:29.302Z,19.61
2023-01-29T13:22:00.316Z,19.71
2023-01-29T13:24:37.145Z,19.57
2023-01-29T13:27:03.975Z,19.61
2023-01-29T13:29:31.270Z,19.69
2023-01-29T13:32:00.892Z,19.70
2023-01-29T13:34:49.619Z,19.62
2023-01-29T13:37:19.111Z,19.49
2023-01-29T13:39:53.181Z,19.45
2023-01-29T13:42:47.381Z,19.66
2023-01-29T13:45:22.768Z,19.65
2023-01-29T13:47:51.713Z,19.63
2023-01-29T13:50:45.941Z,19.56
2023-01-29T13:53:26.409Z,19.54
2023-01-29T13:55:53.336Z,19.59
2023-01-29T13:58:31.758Z,19.62
2023-01-29T14:01:01.225Z,19.28
2023-01-29T14:03:45.122Z,19.60
2023-01-29T14:06:40.402Z,19.61
2023-01-29T14:09:38.835Z,19.62
2023-01-29T14:12:25.463Z,19.61
2023-01-29T14:14:55.481Z,19.61
2023-01-29T14:17:25.619Z,19.60
2023-01-29T14:20:03.002Z,19.55
2023-01-29T14:22:33.195Z,19.60
2023-01-29T14:25:04.689Z,19.48
2023-01-29T14:27:32.396Z,19.58
2023-01-29T14:30:02.038Z,19.60
2023-01-29T14:32:29.578Z,19.59
2023-01-29T14:35:10.557Z,19.58
2023-01-29T14:37:41.443Z,19.46
2023-01-29T14:40:30.228Z,19.56
2023-01-29T14:43:07.740Z,19.47
2023-01-29T14:45:41.748Z,19.56
2023-01-29T14:48:20.386Z,19.56
2023-01-29T14:50:52.057Z,19.55
2023-01-29T14:53:43.042Z,19.54
2023-01-29T14:56:26.380Z,19.53
2023-01-29T14:59:03.269Z,19.49
2023-01-29T15:01:37.871Z,19.52
2023-01-29T15:04:19.144Z,19.46
2023-01-29T15:06:53.004Z,19.36
2023-01-29T15:09:37.821Z,19.50
2023-01-29T15:12:21.000Z,19.53
2023-01-29T15:14:53.574Z,19.53
2023-01-29T15:17:53.011Z,19.53
2023-01-29T15:20:27.378Z,19.51
2023-01-29T15:22:54.309Z,19.50
2023-01-29T15:25:21.636Z,19.48
2023-01-29T15:27:49.408Z,19.49
2023-01-29T15:30:20.299Z,19.47
2023-01-29T15:32:48.345Z,19.46
2023-01-29T15:35:20.837Z,19.45
2023-01-29T15:37:59.916Z,19.41
2023-01-29T15:40:27.319Z,19.43
2023-01-29T15:42:53.853Z,19.42
2023-01-29T15:45:32.168Z,19.41
2023-01-29T15:48:08.286Z,19.40
2023-01-29T15:50:40.458Z,19.40
2023-01-29T15:53:13.644Z,19.09
2023-01-29T15:55:40.550Z,19.38
2023-01-29T15:58:17.455Z,19.24
2023-01-29T16:00:53.468Z,19.33
2023-01-29T16:03:23.827Z,19.36
2023-01-29T16:05:52.431Z,19.29
2023-01-29T16:10:42.154Z,19.33
2023-01-29T16:13:36.958Z,19.28
2023-01-29T16:16:05.910Z,19.33
2023-01-29T16:18:39.497Z,19.32
2023-01-29T16:21:16.361Z,19.31
2023-01-29T16:23:48.223Z,19.28
2023-01-29T16:26:25.831Z,19.27
2023-01-29T16:28:52.766Z,18.83
2023-01-29T16:31:31.199Z,19.09
2023-01-29T16:34:05.817Z,19.20
2023-01-29T16:36:32.738Z,19.28
2023-01-29T16:39:02.476Z,19.28
2023-01-29T16:41:35.958Z,19.06
2023-01-29T16:44:23.562Z,19.27
2023-01-29T16:46:53.349Z,19.26
2023-01-29T16:49:26.074Z,19.27
2023-01-29T16:51:54.266Z,19.27
2023-01-29T16:54:23.854Z,19.25
2023-01-29T16:56:53.977Z,19.25
2023-01-29T16:59:32.633Z,19.25
2023-01-29T17:02:00.005Z,19.24
2023-01-29T17:04:27.623Z,19.24
2023-01-29T17:06:57.310Z,19.23
2023-01-29T17:09:28.620Z,19.24
2023-01-29T17:11:58.452Z,19.19
2023-01-29T17:14:29.723Z,19.23
2023-01-29T17:17:05.994Z,19.14
2023-01-29T17:19:33.186Z,19.19
2023-01-29T17:21:59.988Z,19.16
2023-01-29T17:24:29.839Z,19.19
2023-01-29T17:26:57.442Z,19.23
2023-01-29T17:29:28.513Z,19.22
2023-01-29T17:31:56.069Z,19.19
2023-01-29T17:34:24.084Z,19.22
2023-01-29T17:36:50.724Z,19.03
2023-01-29T17:39:20.422Z,19.22
2023-01-29T17:41:52.512Z,19.20
2023-01-29T17:44:19.528Z,19.20
2023-01-29T17:46:47.346Z,19.16
2023-01-29T17:49:32.572Z,19.23
2023-01-29T17:51:59.808Z,19.27
2023-01-29T17:54:26.306Z,19.25
2023-01-29T17:56:54.240Z,19.30
2023-01-29T17:59:27.666Z,19.27
2023-01-29T18:01:55.356Z,19.31
2023-01-29T18:04:22.232Z,19.29
2023-01-29T18:09:23.138Z,19.30
2023-01-29T18:11:50.280Z,19.31
2023-01-29T18:14:17.688Z,19.28
2023-01-29T18:16:45.047Z,19.29
2023-01-29T18:19:27.571Z,19.30
2023-01-29T18:21:54.467Z,19.30
2023-01-29T18:24:21.173Z,19.26
2023-01-29T18:26:48.856Z,19.25
2023-01-29T18:29:15.481Z,19.29
2023-01-29T18:31:42.249Z,19.25
2023-01-29T18:34:08.841Z,19.28
2023-01-29T18:36:35.660Z,19.27
2023-01-29T18:39:02.226Z,19.26
2023-01-29T18:41:29.509Z,19.15
2023-01-29T18:43:56.089Z,19.28
2023-01-29T18:46:24.345Z,19.23
2023-01-29T18:48:51.042Z,19.27
2023-01-29T18:51:17.922Z,19.20
2023-01-29T18:53:50.169Z,19.30
2023-01-29T18:56:17.129Z,19.30
2023-01-29T18:58:52.018Z,19.29
2023-01-29T19:01:22.775Z,19.32
2023-01-29T19:03:49.387Z,19.33
2023-01-29T19:06:16.008Z,19.24
2023-01-29T19:08:43.791Z,19.23
2023-01-29T19:11:12.433Z,19.32
2023-01-29T19:13:42.822Z,19.32
2023-01-29T19:16:10.810Z,19.31
2023-01-29T19:18:37.723Z,19.29
2023-01-29T19:21:15.078Z,19.27
2023-01-29T19:23:43.039Z,19.29
2023-01-29T19:26:10.334Z,19.28
2023-01-29T19:28:37.003Z,19.20
2023-01-29T19:31:03.817Z,19.23
2023-01-29T19:33:30.512Z,19.27
2023-01-29T19:35:58.183Z,19.24
2023-01-29T19:38:25.146Z,19.24
2023-01-29T19:40:52.326Z,19.17
2023-01-29T19:43:19.297Z,18.96
2023-01-29T19:45:51.106Z,19.14
2023-01-29T19:48:22.096Z,19.24
2023-01-29T19:51:01.061Z,19.01
2023-01-29T19:53:29.211Z,19.25
2023-01-29T19:56:02.863Z,19.27
2023-01-29T19:58:30.628Z,19.26
2023-01-29T20:00:58.959Z,19.23
2023-01-29T20:03:26.646Z,19.30
2023-01-29T20:05:53.328Z,19.22
2023-01-29T20:08:20.061Z,19.29
2023-01-29T20:10:51.453Z,19.29
2023-01-29T20:13:18.351Z,19.11
2023-01-29T20:15:46.796Z,19.10
2023-01-29T20:18:14.320Z,18.92
2023-01-29T20:20:47.881Z,19.26
2023-01-29T20:23:31.846Z,19.21
2023-01-29T20:26:03.362Z,19.09
2023-01-29T20:28:30.023Z,19.24
2023-01-29T20:30:58.259Z,19.18
2023-01-29T20:33:25.550Z,18.93
2023-01-29T20:36:04.132Z,18.92
2023-01-29T20:41:19.500Z,19.11
2023-01-29T20:43:47.304Z,19.22
2023-01-29T20:46:14.359Z,19.23
2023-01-29T20:48:42.178Z,19.12
2023-01-29T20:51:13.055Z,19.20
2023-01-29T20:53:41.140Z,19.20
2023-01-29T20:56:08.264Z,19.20
2023-01-29T20:58:35.990Z,19.20
2023-01-29T21:01:11.653Z,19.10
2023-01-29T21:03:39.373Z,19.11
2023-01-29T21:06:09.712Z,19.09
2023-01-29T21:08:37.757Z,19.06
2023-01-29T21:11:08.686Z,19.18
2023-01-29T21:13:35.465Z,19.18
2023-01-29T21:16:02.403Z,19.17
2023-01-29T21:18:29.825Z,19.17
2023-01-29T21:20:56.481Z,19.17
2023-01-29T21:23:23.326Z,19.06
2023-01-29T21:25:49.933Z,19.17
2023-01-29T21:28:17.038Z,19.16
2023-01-29T21:30:46.402Z,19.13
2023-01-29T21:33:13.305Z,19.11
2023-01-29T21:35:39.949Z,18.95
2023-01-29T21:38:06.603Z,19.15
2023-01-29T21:40:33.580Z,18.90
2023-01-29T21:43:12.365Z,19.01
2023-01-29T21:45:39.829Z,19.15
2023-01-29T21:48:07.499Z,19.15
2023-01-29T21:50:35.123Z,19.02
2023-01-29T21:53:01.787Z,19.12
2023-01-29T21:55:28.757Z,19.12
2023-01-29T21:57:55.344Z,19.12
2023-01-29T22:00:22.396Z,19.19
2023-01-29T22:02:50.101Z,19.17
2023-01-29T22:05:19.692Z,19.12
2023-01-29T22:07:47.656Z,18.95
2023-01-29T22:10:15.481Z,19.17
2023-01-29T22:12:42.493Z,19.27
2023-01-29T22:15:09.756Z,19.29
2023-01-29T22:17:39.180Z,19.31
2023-01-29T22:20:07.420Z,19.26
2023-01-29T22:24:56.488Z,19.26
2023-01-29T22:27:23.296Z,19.36
2023-01-29T22:29:49.884Z,19.38
2023-01-29T22:32:16.561Z,19.39
2023-01-29T22:34:43.117Z,19.39
2023-01-29T22:37:09.767Z,19.05
2023-01-29T22:39:36.407Z,19.24
2023-01-29T22:42:03.056Z,19.43
2023-01-29T22:44:29.616Z,19.40
2023-01-29T22:46:56.313Z,19.35
2023-01-29T22:49:23.228Z,19.34
2023-01-29T22:52:10.001Z,19.45
2023-01-29T22:54:38.753Z,19.32
2023-01-29T22:57:05.697Z,19.45
2023-01-29T23:01:55.692Z,19.47
2023-01-29T23:04:22.545Z,19.38
2023-01-29T23:06:52.321Z,19.35
2023-01-29T23:09:19.226Z,19.49
2023-01-29T23:11:46.178Z,19.24
2023-01-29T23:14:12.782Z,19.30
2023-01-29T23:16:39.384Z,19.50
2023-01-29T23:19:06.009Z,19.30
2023-01-29T23:21:32.899Z,19.47
2023-01-29T23:24:00.660Z,19.10
2023-01-29T23:26:48.786Z,19.25
2023-01-29T23:29:15.931Z,19.53
2023-01-29T23:31:42.660Z,19.39
2023-01-29T23:34:09.325Z,19.40
2023-01-29T23:36:35.878Z,19.39
2023-01-29T23:39:02.549Z,19.54
2023-01-29T23:41:29.075Z,19.35
2023-01-29T23:43:55.679Z,19.55
2023-01-29T23:46:22.243Z,19.51
2023-01-29T23:48:48.910Z,19.57
2023-01-29T23:51:15.482Z,19.56
2023-01-29T23:53:42.261Z,19.48
2023-01-29T23:56:10.743Z,19.56
2023-01-29T23:58:37.755Z,19.51
